createdAt,value
2023-04-02T00:03:42.607Z,97905.54
2023-04-02T00:08:46.290Z,97908.03
2023-04-02T00:13:49.523Z,97910.20
2023-04-02T00:18:56.532Z,97910.55
2023-04-02T00:24:01.476Z,97913.31
2023-04-02T00:29:07.342Z,97922.04
2023-04-02T00:34:18.640Z,97920.63
2023-04-02T00:39:27.425Z,97918.81
2023-04-02T00:44:33.224Z,97922.15
2023-04-02T00:49:39.950Z,97922.06
2023-04-02T00:54:51.169Z,97925.59
2023-04-02T00:59:58.202Z,97932.23
2023-04-02T01:05:23.712Z,97938.08
2023-04-02T01:10:54.315Z,97946.20
2023-04-02T01:16:22.119Z,97951.25
2023-04-02T01:21:33.945Z,97956.73
2023-04-02T01:27:02.422Z,97959.08
2023-04-02T01:32:11.962Z,97963.91
2023-04-02T01:37:39.433Z,97964.69
2023-04-02T01:43:16.032Z,97969.45
2023-04-02T01:48:24.930Z,97970.78
2023-04-02T01:53:31.022Z,97967.58
2023-04-02T01:58:34.805Z,97972.40
2023-04-02T02:03:42.873Z,97974.55
2023-04-02T02:08:59.473Z,97980.42
2023-04-02T02:14:17.812Z,97988.67
2023-04-02T02:19:38.432Z,97987.77
2023-04-02T02:24:42.696Z,97992.89
2023-04-02T02:29:49.618Z,97995.52
2023-04-02T02:35:02.351Z,97994.89
2023-04-02T02:40:13.260Z,97997.65
2023-04-02T02:45:22.982Z,98000.66
2023-04-02T02:50:32.844Z,98002.48
2023-04-02T02:55:38.831Z,98011.44
2023-04-02T03:00:50.486Z,98015.27
2023-04-02T03:05:58.070Z,98020.55
2023-04-02T03:11:02.339Z,98023.77
2023-04-02T03:16:12.132Z,98026.52
2023-04-02T03:21:29.275Z,98027.30
2023-04-02T03:26:49.463Z,98029.48
2023-04-02T03:32:12.283Z,98029.16
2023-04-02T03:37:32.034Z,98028.86
2023-04-02T03:43:00.196Z,98040.73
2023-04-02T03:48:24.278Z,98044.97
2023-04-02T03:53:29.851Z,98057.41
2023-04-02T03:58:47.246Z,98063.83
2023-04-02T04:03:55.640Z,98070.55
2023-04-02T04:09:01.295Z,98073.73
2023-04-02T04:14:18.439Z,98074.63
2023-04-02T04:19:24.905Z,98080.61
2023-04-02T04:24:28.616Z,98083.63
2023-04-02T04:29:53.710Z,98087.75
2023-04-02T04:35:21.742Z,98092.20
2023-04-02T04:40:45.072Z,98096.71
2023-04-02T04:46:00.264Z,98103.91
2023-04-02T04:51:08.917Z,98111.13
2023-04-02T04:56:19.329Z,98119.52
2023-04-02T05:01:39.155Z,98125.20
2023-04-02T05:06:55.559Z,98130.16
2023-04-02T05:12:16.376Z,98138.28
2023-04-02T05:17:27.571Z,98146.13
2023-04-02T05:22:44.325Z,98146.92
2023-04-02T05:34:05.300Z,98162.26
2023-04-02T05:39:11.265Z,98167.76
2023-04-02T05:44:27.236Z,98169.10
2023-04-02T05:49:58.649Z,98170.06
2023-04-02T05:55:11.606Z,98167.79
2023-04-02T06:00:43.691Z,98174.16
2023-04-02T06:05:48.333Z,98171.58
2023-04-02T06:10:55.572Z,98178.08
2023-04-02T06:16:01.720Z,98180.17
2023-04-02T06:21:14.487Z,98182.63
2023-04-02T06:26:34.057Z,98183.41
2023-04-02T06:31:57.482Z,98191.84
2023-04-02T06:37:12.067Z,98193.77
2023-04-02T06:42:21.958Z,98203.09
2023-04-02T06:47:42.727Z,98214.47
2023-04-02T06:52:56.701Z,98223.77
2023-04-02T06:58:00.658Z,98225.70
2023-04-02T07:03:13.716Z,98224.71
2023-04-02T07:08:17.244Z,98230.30
2023-04-02T07:13:22.817Z,98232.42
2023-04-02T07:18:31.225Z,98240.56
2023-04-02T07:23:36.292Z,98241.02
2023-04-02T07:28:39.593Z,98248.73
2023-04-02T07:33:42.861Z,98256.68
2023-04-02T07:38:46.572Z,98258.48
2023-04-02T07:43:49.792Z,98262.61
2023-04-02T07:48:53.042Z,98274.21
2023-04-02T07:53:58.616Z,98273.12
2023-04-02T07:59:02.225Z,98284.31
2023-04-02T08:04:08.116Z,98285.21
2023-04-02T08:09:11.628Z,98294.82
2023-04-02T08:14:14.997Z,98297.11
2023-04-02T08:19:19.173Z,98305.94
2023-04-02T08:24:22.956Z,98318.88
2023-04-02T08:29:26.196Z,98321.41
2023-04-02T08:34:32.401Z,98337.86
2023-04-02T08:39:35.667Z,98349.08
2023-04-02T08:44:41.992Z,98360.80
2023-04-02T08:49:53.882Z,98372.27
2023-04-02T08:54:58.420Z,98388.48
2023-04-02T09:00:15.982Z,98394.90
2023-04-02T09:05:27.111Z,98404.80
2023-04-02T09:10:42.721Z,98407.06
2023-04-02T09:15:46.150Z,98415.55
2023-04-02T09:20:50.430Z,98423.75
2023-04-02T09:26:04.127Z,98431.39
2023-04-02T09:31:41.045Z,98444.17
2023-04-02T09:36:44.906Z,98458.86
2023-04-02T09:41:58.990Z,98466.47
2023-04-02T09:47:26.522Z,98475.30
2023-04-02T09:52:37.381Z,98486.59
2023-04-02T09:57:40.700Z,98494.23
2023-04-02T10:02:46.943Z,98506.71
2023-04-02T10:07:55.933Z,98517.85
2023-04-02T10:13:07.102Z,98520.21
2023-04-02T10:18:21.910Z,98530.27
2023-04-02T10:23:29.526Z,98541.09
2023-04-02T10:28:57.808Z,98551.77
2023-04-02T10:34:06.535Z,98561.98
2023-04-02T10:39:15.109Z,98569.04
2023-04-02T10:44:30.005Z,98578.41
2023-04-02T10:49:56.076Z,98593.34
2023-04-02T10:55:21.052Z,98600.76
2023-04-02T11:00:38.349Z,98611.21
2023-04-02T11:05:53.653Z,98617.49
2023-04-02T11:11:31.149Z,98625.93
2023-04-02T11:16:36.159Z,98641.33
2023-04-02T11:21:57.875Z,98651.75
2023-04-02T11:27:18.995Z,98661.30
2023-04-02T11:32:24.330Z,98665.66
2023-04-02T11:37:34.992Z,98676.23
2023-04-02T11:42:45.584Z,98684.52
2023-04-02T11:48:13.690Z,98686.08
2023-04-02T11:53:21.484Z,98689.44
2023-04-02T11:58:33.549Z,98694.36
2023-04-02T12:04:03.896Z,98697.39
2023-04-02T12:09:23.911Z,98703.55
2023-04-02T12:14:35.727Z,98707.39
2023-04-02T12:19:39.686Z,98709.38
2023-04-02T12:24:43.204Z,98718.13
2023-04-02T12:29:47.274Z,98722.58
2023-04-02T12:34:52.238Z,98724.98
2023-04-02T12:40:16.101Z,98726.56
2023-04-02T12:45:33.431Z,98730.79
2023-04-02T12:50:36.857Z,98737.55
2023-04-02T12:55:48.256Z,98737.14
2023-04-02T13:00:51.574Z,98738.43
2023-04-02T13:05:57.574Z,98743.91
2023-04-02T13:11:02.167Z,98749.80
2023-04-02T13:16:26.404Z,98754.79
2023-04-02T13:21:32.239Z,98767.55
2023-04-02T13:26:35.449Z,98768.52
2023-04-02T13:31:38.712Z,98776.13
2023-04-02T13:36:41.880Z,98780.16
2023-04-02T13:41:51.618Z,98784.33
2023-04-02T13:46:55.900Z,98785.41
2023-04-02T13:52:03.372Z,98787.48
2023-04-02T13:57:07.658Z,98792.50
2023-04-02T14:02:24.664Z,98796.09
2023-04-02T14:07:34.170Z,98798.80
2023-04-02T14:13:10.775Z,98805.19
2023-04-02T14:18:22.736Z,98807.39
2023-04-02T14:23:38.573Z,98820.27
2023-04-02T14:28:57.799Z,98823.77
2023-04-02T14:34:41.809Z,98834.47
2023-04-02T14:39:47.641Z,98844.19
2023-04-02T14:44:58.273Z,98851.73
2023-04-02T14:50:13.888Z,98855.40
2023-04-02T14:55:42.625Z,98862.11
2023-04-02T15:00:56.214Z,98863.77
2023-04-02T15:06:04.863Z,98871.31
2023-04-02T15:11:16.505Z,98875.96
2023-04-02T15:16:23.305Z,98880.80
2023-04-02T15:21:29.551Z,98888.21
2023-04-02T15:26:49.885Z,98898.66
2023-04-02T15:31:58.299Z,98905.29
2023-04-02T15:37:29.927Z,98909.95
2023-04-02T15:43:19.852Z,98919.64
2023-04-02T15:48:47.135Z,98925.19
2023-04-02T15:54:33.874Z,98933.96
2023-04-02T15:59:52.010Z,98938.19
2023-04-02T16:05:01.275Z,98947.41
2023-04-02T16:10:37.925Z,98956.02
2023-04-02T16:15:51.061Z,98964.05
2023-04-02T16:20:57.309Z,98970.16
2023-04-02T16:26:13.308Z,98974.98
2023-04-02T16:31:40.636Z,98981.20
2023-04-02T16:36:45.328Z,98990.36
2023-04-02T16:42:15.778Z,98996.63
2023-04-02T16:48:10.251Z,99003.46
2023-04-02T16:53:17.526Z,99007.12
2023-04-02T16:58:32.014Z,99016.77
2023-04-02T17:04:02.993Z,99022.84
2023-04-02T17:09:26.375Z,99034.16
2023-04-02T17:14:41.209Z,99044.58
2023-04-02T17:19:45.022Z,99051.79
2023-04-02T17:24:55.021Z,99058.30
2023-04-02T17:30:12.705Z,99063.86
2023-04-02T17:35:44.043Z,99066.45
2023-04-02T17:41:02.598Z,99072.27
2023-04-02T17:46:18.222Z,99080.89
2023-04-02T17:51:45.575Z,99087.20
2023-04-02T17:57:29.945Z,99092.40
2023-04-02T18:02:57.525Z,99099.67
2023-04-02T18:08:27.632Z,99105.48
2023-04-02T18:13:36.430Z,99112.48
2023-04-02T18:18:48.722Z,99118.52
2023-04-02T18:24:35.240Z,99125.43
2023-04-02T18:29:50.757Z,99130.88
2023-04-02T18:34:57.191Z,99133.85
2023-04-02T18:40:39.413Z,99139.64
2023-04-02T18:46:00.551Z,99145.92
2023-04-02T18:51:06.517Z,99149.35
2023-04-02T18:56:16.375Z,99152.30
2023-04-02T19:07:15.684Z,99165.08
2023-04-02T19:12:22.396Z,99168.69
2023-04-02T19:24:15.914Z,99176.32
2023-04-02T19:29:39.720Z,99175.62
2023-04-02T19:35:03.467Z,99177.04
2023-04-02T19:40:06.831Z,99180.07
2023-04-02T19:45:36.023Z,99186.36
2023-04-02T19:50:39.941Z,99191.78
2023-04-02T19:55:44.159Z,99196.16
2023-04-02T20:00:47.593Z,99199.27
2023-04-02T20:05:51.371Z,99201.59
2023-04-02T20:11:24.087Z,99201.95
2023-04-02T20:16:27.703Z,99206.41
2023-04-02T20:21:38.430Z,99207.02
2023-04-02T20:26:41.844Z,99215.06
2023-04-02T20:31:45.365Z,99217.07
2023-04-02T20:36:48.672Z,99223.80
2023-04-02T20:41:51.973Z,99227.40
2023-04-02T20:47:12.492Z,99227.79
2023-04-02T20:52:16.069Z,99230.36
2023-04-02T20:57:22.165Z,99230.34
2023-04-02T21:02:25.680Z,99233.29
2023-04-02T21:07:29.263Z,99236.55
2023-04-02T21:12:32.808Z,99237.54
2023-04-02T21:17:36.190Z,99238.84
2023-04-02T21:22:39.484Z,99247.09
2023-04-02T21:27:42.826Z,99246.33
2023-04-02T21:32:46.138Z,99246.39
2023-04-02T21:37:49.394Z,99249.84
2023-04-02T21:42:54.884Z,99249.80
2023-04-02T21:47:58.360Z,99253.92
2023-04-02T21:53:01.822Z,99257.16
2023-04-02T21:58:05.492Z,99259.36
2023-04-02T22:03:10.164Z,99264.91
2023-04-02T22:08:15.168Z,99267.11
2023-04-02T22:13:19.187Z,99267.70
2023-04-02T22:18:22.628Z,99268.28
2023-04-02T22:23:27.916Z,99268.31
2023-04-02T22:28:31.729Z,99276.61
2023-04-02T22:33:35.894Z,99277.87
2023-04-02T22:38:54.759Z,99283.33
2023-04-02T22:43:59.832Z,99284.91
2023-04-02T22:49:03.671Z,99284.27
2023-04-02T22:54:07.177Z,99285.89
2023-04-02T22:59:10.611Z,99283.60
2023-04-02T23:04:14.050Z,99284.73
2023-04-02T23:09:17.539Z,99286.75
2023-04-02T23:14:21.586Z,99286.61
2023-04-02T23:19:24.950Z,99294.91
2023-04-02T23:24:28.271Z,99299.68
2023-04-02T23:29:31.600Z,99299.63
2023-04-02T23:34:34.907Z,99306.64
2023-04-02T23:39:38.603Z,99306.55
2023-04-02T23:44:41.947Z,99310.05
2023-04-02T23:49:48.026Z,99311.20
2023-04-02T23:54:51.413Z,99311.11
2023-04-02T23:59:54.795Z,99315.55
